sensor_id;sensor_type;location;lat;lon;timestamp;P1;durP1;ratioP1;P2;durP2;ratioP2
14892;SDS011;7538;53.626;9.906;2023-02-01T00:01:58;16.10;;;4.87;;
14892;SDS011;7538;53.626;9.906;2023-02-01T00:04:25;20.57;;;4.97;;
14892;SDS011;7538;53.626;9.906;2023-02-01T00:06:52;20.53;;;5.07;;
14892;SDS011;7538;53.626;9.906;2023-02-01T00:09:19;16.63;;;4.27;;
14892;SDS011;7538;53.626;9.906;2023-02-01T00:11:47;18.10;;;4.27;;
14892;SDS011;7538;53.626;9.906;2023-02-01T00:14:14;19.87;;;5.00;;
14892;SDS011;7538;53.626;9.906;2023-02-01T00:16:42;22.60;;;4.83;;
14892;SDS011;7538;53.626;9.906;2023-02-01T00:19:10;19.40;;;4.73;;
14892;SDS011;7538;53.626;9.906;2023-02-01T00:21:38;20.20;;;4.87;;
14892;SDS011;7538;53.626;9.906;2023-02-01T00:24:05;20.27;;;4.60;;
14892;SDS011;7538;53.626;9.906;2023-02-01T00:26:33;22.07;;;4.70;;
14892;SDS011;7538;53.626;9.906;2023-02-01T00:29:03;27.17;;;4.97;;
14892;SDS011;7538;53.626;9.906;2023-02-01T00:31:31;22.53;;;5.03;;
14892;SDS011;7538;53.626;9.906;2023-02-01T00:33:58;22.73;;;4.67;;
14892;SDS011;7538;53.626;9.906;2023-02-01T00:36:25;22.43;;;4.97;;
14892;SDS011;7538;53.626;9.906;2023-02-01T00:38:52;24.07;;;5.30;;
14892;SDS011;7538;53.626;9.906;2023-02-01T00:41:20;22.90;;;4.67;;
14892;SDS011;7538;53.626;9.906;2023-02-01T00:43:47;20.80;;;4.53;;
14892;SDS011;7538;53.626;9.906;2023-02-01T00:46:17;25.80;;;5.00;;
14892;SDS011;7538;53.626;9.906;2023-02-01T00:48:45;21.83;;;5.10;;
14892;SDS011;7538;53.626;9.906;2023-02-01T00:51:12;18.30;;;4.87;;
14892;SDS011;7538;53.626;9.906;2023-02-01T00:53:40;21.37;;;5.27;;
14892;SDS011;7538;53.626;9.906;2023-02-01T00:56:07;19.67;;;4.87;;
14892;SDS011;7538;53.626;9.906;2023-02-01T00:58:35;22.30;;;6.17;;
14892;SDS011;7538;53.626;9.906;2023-02-01T01:01:02;21.53;;;4.73;;
14892;SDS011;7538;53.626;9.906;2023-02-01T01:03:32;21.40;;;4.93;;
14892;SDS011;7538;53.626;9.906;2023-02-01T01:06:02;28.63;;;5.33;;
14892;SDS011;7538;53.626;9.906;2023-02-01T01:08:30;20.10;;;5.03;;
14892;SDS011;7538;53.626;9.906;2023-02-01T01:10:57;20.03;;;5.37;;
14892;SDS011;7538;53.626;9.906;2023-02-01T01:13:24;21.43;;;5.20;;
14892;SDS011;7538;53.626;9.906;2023-02-01T01:15:50;23.23;;;5.57;;
14892;SDS011;7538;53.626;9.906;2023-02-01T01:18:17;21.73;;;5.67;;
14892;SDS011;7538;53.626;9.906;2023-02-01T01:20:47;22.50;;;4.83;;
14892;SDS011;7538;53.626;9.906;2023-02-01T01:23:14;32.50;;;6.53;;
14892;SDS011;7538;53.626;9.906;2023-02-01T01:25:41;22.50;;;5.43;;
14892;SDS011;7538;53.626;9.906;2023-02-01T01:28:07;24.13;;;5.70;;
14892;SDS011;7538;53.626;9.906;2023-02-01T01:30:34;28.43;;;5.43;;
14892;SDS011;7538;53.626;9.906;2023-02-01T01:33:01;24.27;;;6.33;;
14892;SDS011;7538;53.626;9.906;2023-02-01T01:35:28;27.70;;;5.80;;
14892;SDS011;7538;53.626;9.906;2023-02-01T01:37:57;29.90;;;6.50;;
14892;SDS011;7538;53.626;9.906;2023-02-01T01:40:24;27.13;;;5.93;;
14892;SDS011;7538;53.626;9.906;2023-02-01T01:42:51;22.67;;;5.90;;
14892;SDS011;7538;53.626;9.906;2023-02-01T01:45:21;21.57;;;5.23;;
14892;SDS011;7538;53.626;9.906;2023-02-01T01:47:51;19.97;;;5.40;;
14892;SDS011;7538;53.626;9.906;2023-02-01T01:50:21;23.03;;;6.37;;
14892;SDS011;7538;53.626;9.906;2023-02-01T01:52:51;24.23;;;6.90;;
14892;SDS011;7538;53.626;9.906;2023-02-01T01:55:21;24.87;;;5.53;;
14892;SDS011;7538;53.626;9.906;2023-02-01T01:57:51;27.13;;;6.60;;
14892;SDS011;7538;53.626;9.906;2023-02-01T02:00:21;26.67;;;5.80;;
14892;SDS011;7538;53.626;9.906;2023-02-01T02:02:49;29.73;;;6.30;;
14892;SDS011;7538;53.626;9.906;2023-02-01T02:05:23;30.97;;;6.40;;
14892;SDS011;7538;53.626;9.906;2023-02-01T02:07:50;23.90;;;6.33;;
14892;SDS011;7538;53.626;9.906;2023-02-01T02:10:19;26.60;;;6.17;;
14892;SDS011;7538;53.626;9.906;2023-02-01T02:13:07;30.63;;;6.33;;
14892;SDS011;7538;53.626;9.906;2023-02-01T02:15:35;21.73;;;5.27;;
14892;SDS011;7538;53.626;9.906;2023-02-01T02:18:08;22.57;;;5.77;;
14892;SDS011;7538;53.626;9.906;2023-02-01T02:20:52;27.70;;;6.70;;
14892;SDS011;7538;53.626;9.906;2023-02-01T02:27:03;20.23;;;5.43;;
14892;SDS011;7538;53.626;9.906;2023-02-01T02:35:54;25.57;;;6.10;;
14892;SDS011;7538;53.626;9.906;2023-02-01T02:38:29;30.07;;;6.73;;
14892;SDS011;7538;53.626;9.906;2023-02-01T02:41:01;25.47;;;5.33;;
14892;SDS011;7538;53.626;9.906;2023-02-01T02:43:35;24.30;;;5.40;;
14892;SDS011;7538;53.626;9.906;2023-02-01T02:46:36;28.43;;;6.43;;
14892;SDS011;7538;53.626;9.906;2023-02-01T02:49:25;24.13;;;5.87;;
14892;SDS011;7538;53.626;9.906;2023-02-01T02:52:02;26.00;;;6.13;;
14892;SDS011;7538;53.626;9.906;2023-02-01T02:54:49;23.17;;;5.33;;
14892;SDS011;7538;53.626;9.906;2023-02-01T02:57:20;21.90;;;5.30;;
14892;SDS011;7538;53.626;9.906;2023-02-01T03:00:09;27.27;;;5.97;;
14892;SDS011;7538;53.626;9.906;2023-02-01T03:02:55;23.53;;;5.57;;
14892;SDS011;7538;53.626;9.906;2023-02-01T03:05:41;26.83;;;5.47;;
14892;SDS011;7538;53.626;9.906;2023-02-01T03:08:12;28.53;;;5.50;;
14892;SDS011;7538;53.626;9.906;2023-02-01T03:10:47;24.53;;;7.27;;
14892;SDS011;7538;53.626;9.906;2023-02-01T03:13:19;28.30;;;6.63;;
14892;SDS011;7538;53.626;9.906;2023-02-01T03:15:56;30.57;;;6.27;;
14892;SDS011;7538;53.626;9.906;2023-02-01T03:18:28;26.53;;;5.87;;
14892;SDS011;7538;53.626;9.906;2023-02-01T03:21:00;32.33;;;6.80;;
14892;SDS011;7538;53.626;9.906;2023-02-01T03:23:34;23.03;;;5.33;;
14892;SDS011;7538;53.626;9.906;2023-02-01T03:26:03;26.97;;;5.87;;
14892;SDS011;7538;53.626;9.906;2023-02-01T03:28:35;21.27;;;5.50;;
14892;SDS011;7538;53.626;9.906;2023-02-01T03:31:05;23.17;;;4.73;;
14892;SDS011;7538;53.626;9.906;2023-02-01T03:33:32;20.93;;;4.60;;
14892;SDS011;7538;53.626;9.906;2023-02-01T03:36:01;19.43;;;4.60;;
14892;SDS011;7538;53.626;9.906;2023-02-01T03:38:37;18.00;;;4.43;;
14892;SDS011;7538;53.626;9.906;2023-02-01T03:41:09;16.50;;;4.37;;
14892;SDS011;7538;53.626;9.906;2023-02-01T03:43:46;12.00;;;3.63;;
14892;SDS011;7538;53.626;9.906;2023-02-01T03:46:21;18.63;;;4.03;;
14892;SDS011;7538;53.626;9.906;2023-02-01T03:48:52;13.80;;;3.93;;
14892;SDS011;7538;53.626;9.906;2023-02-01T03:51:21;23.30;;;4.03;;
14892;SDS011;7538;53.626;9.906;2023-02-01T03:53:50;19.60;;;4.33;;
14892;SDS011;7538;53.626;9.906;2023-02-01T03:56:19;18.23;;;4.07;;
14892;SDS011;7538;53.626;9.906;2023-02-01T03:58:48;17.90;;;4.97;;
14892;SDS011;7538;53.626;9.906;2023-02-01T04:01:24;10.93;;;3.67;;
14892;SDS011;7538;53.626;9.906;2023-02-01T04:03:52;23.37;;;4.70;;
14892;SDS011;7538;53.626;9.906;2023-02-01T04:06:19;21.57;;;4.80;;
14892;SDS011;7538;53.626;9.906;2023-02-01T04:08:46;16.17;;;4.60;;
14892;SDS011;7538;53.626;9.906;2023-02-01T04:11:14;21.63;;;4.53;;
14892;SDS011;7538;53.626;9.906;2023-02-01T04:13:41;26.20;;;4.77;;
14892;SDS011;7538;53.626;9.906;2023-02-01T04:16:08;20.70;;;4.80;;
14892;SDS011;7538;53.626;9.906;2023-02-01T04:18:34;16.97;;;4.83;;
14892;SDS011;7538;53.626;9.906;2023-02-01T04:21:02;18.07;;;4.83;;
14892;SDS011;7538;53.626;9.906;2023-02-01T04:23:29;19.20;;;3.70;;
14892;SDS011;7538;53.626;9.906;2023-02-01T04:25:58;21.70;;;4.53;;
14892;SDS011;7538;53.626;9.906;2023-02-01T04:28:27;25.00;;;5.40;;
14892;SDS011;7538;53.626;9.906;2023-02-01T04:30:54;23.90;;;4.47;;
14892;SDS011;7538;53.626;9.906;2023-02-01T04:33:21;22.43;;;4.57;;
14892;SDS011;7538;53.626;9.906;2023-02-01T04:35:48;17.47;;;4.17;;
14892;SDS011;7538;53.626;9.906;2023-02-01T04:38:15;21.90;;;3.87;;
14892;SDS011;7538;53.626;9.906;2023-02-01T04:40:42;28.07;;;4.80;;
14892;SDS011;7538;53.626;9.906;2023-02-01T04:43:08;14.90;;;3.57;;
14892;SDS011;7538;53.626;9.906;2023-02-01T04:45:36;10.93;;;3.00;;
14892;SDS011;7538;53.626;9.906;2023-02-01T04:48:03;12.73;;;2.80;;
14892;SDS011;7538;53.626;9.906;2023-02-01T04:50:30;13.90;;;2.87;;
14892;SDS011;7538;53.626;9.906;2023-02-01T04:52:57;10.50;;;2.73;;
14892;SDS011;7538;53.626;9.906;2023-02-01T04:55:24;11.30;;;3.07;;
14892;SDS011;7538;53.626;9.906;2023-02-01T04:57:51;13.50;;;2.63;;
14892;SDS011;7538;53.626;9.906;2023-02-01T05:00:18;10.60;;;2.97;;
14892;SDS011;7538;53.626;9.906;2023-02-01T05:02:47;10.83;;;2.70;;
14892;SDS011;7538;53.626;9.906;2023-02-01T05:05:13;7.90;;;2.03;;
14892;SDS011;7538;53.626;9.906;2023-02-01T05:07:40;10.33;;;2.53;;
14892;SDS011;7538;53.626;9.906;2023-02-01T05:10:08;7.30;;;2.00;;
14892;SDS011;7538;53.626;9.906;2023-02-01T05:12:35;4.03;;;1.13;;
14892;SDS011;7538;53.626;9.906;2023-02-01T05:15:19;5.10;;;1.60;;
14892;SDS011;7538;53.626;9.906;2023-02-01T05:17:48;6.40;;;1.23;;
14892;SDS011;7538;53.626;9.906;2023-02-01T05:20:15;7.33;;;1.70;;
14892;SDS011;7538;53.626;9.906;2023-02-01T05:22:42;1.97;;;1.30;;
14892;SDS011;7538;53.626;9.906;2023-02-01T05:25:09;3.47;;;1.23;;
14892;SDS011;7538;53.626;9.906;2023-02-01T05:27:35;3.13;;;1.27;;
14892;SDS011;7538;53.626;9.906;2023-02-01T05:30:03;4.53;;;1.40;;
14892;SDS011;7538;53.626;9.906;2023-02-01T05:32:31;3.60;;;1.00;;
14892;SDS011;7538;53.626;9.906;2023-02-01T05:34:59;2.03;;;1.27;;
14892;SDS011;7538;53.626;9.906;2023-02-01T05:37:25;3.47;;;1.30;;
14892;SDS011;7538;53.626;9.906;2023-02-01T05:39:52;3.20;;;0.83;;
14892;SDS011;7538;53.626;9.906;2023-02-01T05:42:19;3.93;;;1.00;;
14892;SDS011;7538;53.626;9.906;2023-02-01T05:44:46;2.13;;;0.97;;
14892;SDS011;7538;53.626;9.906;2023-02-01T05:47:13;2.87;;;1.10;;
14892;SDS011;7538;53.626;9.906;2023-02-01T05:49:39;3.33;;;1.00;;
14892;SDS011;7538;53.626;9.906;2023-02-01T05:52:08;1.23;;;1.13;;
14892;SDS011;7538;53.626;9.906;2023-02-01T05:54:34;3.27;;;0.90;;
14892;SDS011;7538;53.626;9.906;2023-02-01T05:57:01;1.87;;;0.70;;
14892;SDS011;7538;53.626;9.906;2023-02-01T05:59:28;3.13;;;1.00;;
14892;SDS011;7538;53.626;9.906;2023-02-01T06:01:55;3.17;;;0.80;;
14892;SDS011;7538;53.626;9.906;2023-02-01T06:04:22;3.37;;;1.00;;
14892;SDS011;7538;53.626;9.906;2023-02-01T06:06:48;2.97;;;0.90;;
14892;SDS011;7538;53.626;9.906;2023-02-01T06:09:17;3.40;;;1.00;;
14892;SDS011;7538;53.626;9.906;2023-02-01T06:11:44;3.67;;;1.03;;
14892;SDS011;7538;53.626;9.906;2023-02-01T06:14:11;3.93;;;1.40;;
14892;SDS011;7538;53.626;9.906;2023-02-01T06:16:37;7.13;;;1.30;;
14892;SDS011;7538;53.626;9.906;2023-02-01T06:19:04;5.00;;;1.30;;
14892;SDS011;7538;53.626;9.906;2023-02-01T06:21:31;5.10;;;1.30;;
14892;SDS011;7538;53.626;9.906;2023-02-01T06:23:58;8.07;;;2.27;;
14892;SDS011;7538;53.626;9.906;2023-02-01T06:26:26;2.90;;;1.50;;
14892;SDS011;7538;53.626;9.906;2023-02-01T06:28:54;4.67;;;1.40;;
14892;SDS011;7538;53.626;9.906;2023-02-01T06:31:21;7.37;;;1.73;;
14892;SDS011;7538;53.626;9.906;2023-02-01T06:33:48;4.17;;;1.43;;
14892;SDS011;7538;53.626;9.906;2023-02-01T06:36:15;5.90;;;1.17;;
14892;SDS011;7538;53.626;9.906;2023-02-01T06:38:43;6.17;;;2.00;;
14892;SDS011;7538;53.626;9.906;2023-02-01T06:41:10;6.90;;;2.00;;
14892;SDS011;7538;53.626;9.906;2023-02-01T06:43:38;6.77;;;2.37;;
14892;SDS011;7538;53.626;9.906;2023-02-01T06:46:06;7.17;;;1.77;;
14892;SDS011;7538;53.626;9.906;2023-02-01T06:48:35;9.20;;;2.40;;
14892;SDS011;7538;53.626;9.906;2023-02-01T06:51:02;10.73;;;2.53;;
14892;SDS011;7538;53.626;9.906;2023-02-01T06:53:29;8.53;;;2.67;;
14892;SDS011;7538;53.626;9.906;2023-02-01T06:55:57;9.97;;;2.87;;
14892;SDS011;7538;53.626;9.906;2023-02-01T06:58:27;12.70;;;2.70;;
14892;SDS011;7538;53.626;9.906;2023-02-01T07:00:56;15.57;;;3.30;;
14892;SDS011;7538;53.626;9.906;2023-02-01T07:03:22;16.57;;;4.07;;
14892;SDS011;7538;53.626;9.906;2023-02-01T07:05:49;10.00;;;3.00;;
14892;SDS011;7538;53.626;9.906;2023-02-01T07:08:23;10.90;;;2.43;;
14892;SDS011;7538;53.626;9.906;2023-02-01T07:10:50;13.77;;;2.60;;
14892;SDS011;7538;53.626;9.906;2023-02-01T07:13:17;15.10;;;2.97;;
14892;SDS011;7538;53.626;9.906;2023-02-01T07:15:43;9.37;;;2.43;;
14892;SDS011;7538;53.626;9.906;2023-02-01T07:18:13;12.77;;;2.57;;
14892;SDS011;7538;53.626;9.906;2023-02-01T07:20:40;11.03;;;2.90;;
14892;SDS011;7538;53.626;9.906;2023-02-01T07:23:07;16.73;;;3.27;;
14892;SDS011;7538;53.626;9.906;2023-02-01T07:25:35;21.00;;;3.77;;
14892;SDS011;7538;53.626;9.906;2023-02-01T07:28:02;16.57;;;3.83;;
14892;SDS011;7538;53.626;9.906;2023-02-01T07:30:29;14.27;;;3.10;;
14892;SDS011;7538;53.626;9.906;2023-02-01T07:32:55;21.93;;;5.57;;
14892;SDS011;7538;53.626;9.906;2023-02-01T07:35:27;14.50;;;3.77;;
14892;SDS011;7538;53.626;9.906;2023-02-01T07:37:54;17.70;;;4.00;;
14892;SDS011;7538;53.626;9.906;2023-02-01T07:40:22;17.77;;;4.00;;
14892;SDS011;7538;53.626;9.906;2023-02-01T07:42:53;12.47;;;3.50;;
14892;SDS011;7538;53.626;9.906;2023-02-01T07:45:20;12.63;;;3.17;;
14892;SDS011;7538;53.626;9.906;2023-02-01T07:47:47;22.93;;;4.80;;
14892;SDS011;7538;53.626;9.906;2023-02-01T07:50:14;18.20;;;4.77;;
14892;SDS011;7538;53.626;9.906;2023-02-01T07:52:42;19.07;;;4.37;;
14892;SDS011;7538;53.626;9.906;2023-02-01T07:55:09;23.23;;;5.10;;
14892;SDS011;7538;53.626;9.906;2023-02-01T07:57:36;22.70;;;5.00;;
14892;SDS011;7538;53.626;9.906;2023-02-01T08:00:03;27.47;;;6.03;;
14892;SDS011;7538;53.626;9.906;2023-02-01T08:02:49;22.53;;;5.67;;
14892;SDS011;7538;53.626;9.906;2023-02-01T08:05:16;28.97;;;6.20;;
14892;SDS011;7538;53.626;9.906;2023-02-01T08:07:44;22.07;;;5.30;;
14892;SDS011;7538;53.626;9.906;2023-02-01T08:10:15;32.73;;;6.60;;
14892;SDS011;7538;53.626;9.906;2023-02-01T08:12:42;32.80;;;5.73;;
14892;SDS011;7538;53.626;9.906;2023-02-01T08:15:12;33.47;;;5.70;;
14892;SDS011;7538;53.626;9.906;2023-02-01T08:17:40;30.20;;;5.10;;
14892;SDS011;7538;53.626;9.906;2023-02-01T08:20:11;24.17;;;5.20;;
14892;SDS011;7538;53.626;9.906;2023-02-01T08:22:38;24.07;;;5.10;;
14892;SDS011;7538;53.626;9.906;2023-02-01T08:25:07;25.30;;;5.43;;
14892;SDS011;7538;53.626;9.906;2023-02-01T08:27:34;28.37;;;5.77;;
14892;SDS011;7538;53.626;9.906;2023-02-01T08:30:02;26.30;;;5.03;;
14892;SDS011;7538;53.626;9.906;2023-02-01T08:32:30;23.23;;;5.23;;
14892;SDS011;7538;53.626;9.906;2023-02-01T08:34:57;22.53;;;4.40;;
14892;SDS011;7538;53.626;9.906;2023-02-01T08:37:23;19.60;;;3.50;;
14892;SDS011;7538;53.626;9.906;2023-02-01T08:39:50;16.33;;;2.87;;
14892;SDS011;7538;53.626;9.906;2023-02-01T08:42:18;11.30;;;3.40;;
14892;SDS011;7538;53.626;9.906;2023-02-01T08:45:03;11.87;;;3.33;;
14892;SDS011;7538;53.626;9.906;2023-02-01T08:47:30;10.27;;;2.57;;
14892;SDS011;7538;53.626;9.906;2023-02-01T08:49:57;13.53;;;3.07;;
14892;SDS011;7538;53.626;9.906;2023-02-01T08:52:24;8.00;;;2.43;;
14892;SDS011;7538;53.626;9.906;2023-02-01T08:54:51;12.47;;;3.27;;
14892;SDS011;7538;53.626;9.906;2023-02-01T08:57:19;11.70;;;3.43;;
14892;SDS011;7538;53.626;9.906;2023-02-01T08:59:46;17.23;;;4.20;;
14892;SDS011;7538;53.626;9.906;2023-02-01T09:02:13;14.07;;;3.33;;
14892;SDS011;7538;53.626;9.906;2023-02-01T09:04:40;22.37;;;4.10;;
14892;SDS011;7538;53.626;9.906;2023-02-01T09:07:07;20.57;;;4.20;;
14892;SDS011;7538;53.626;9.906;2023-02-01T09:09:35;20.00;;;4.17;;
14892;SDS011;7538;53.626;9.906;2023-02-01T09:12:03;24.00;;;4.73;;
14892;SDS011;7538;53.626;9.906;2023-02-01T09:14:32;22.10;;;4.73;;
14892;SDS011;7538;53.626;9.906;2023-02-01T09:16:58;13.10;;;4.17;;
14892;SDS011;7538;53.626;9.906;2023-02-01T09:19:25;20.40;;;4.60;;
14892;SDS011;7538;53.626;9.906;2023-02-01T09:21:52;23.30;;;5.70;;
14892;SDS011;7538;53.626;9.906;2023-02-01T09:24:19;19.50;;;5.03;;
14892;SDS011;7538;53.626;9.906;2023-02-01T09:26:46;19.50;;;4.47;;
14892;SDS011;7538;53.626;9.906;2023-02-01T09:29:12;15.40;;;4.00;;
14892;SDS011;7538;53.626;9.906;2023-02-01T09:31:41;19.87;;;4.97;;
14892;SDS011;7538;53.626;9.906;2023-02-01T09:34:07;22.30;;;5.23;;
14892;SDS011;7538;53.626;9.906;2023-02-01T09:36:34;16.27;;;4.97;;
14892;SDS011;7538;53.626;9.906;2023-02-01T09:39:01;14.53;;;4.70;;
14892;SDS011;7538;53.626;9.906;2023-02-01T09:41:37;16.17;;;4.18;;
14892;SDS011;7538;53.626;9.906;2023-02-01T09:44:21;15.50;;;4.47;;
14892;SDS011;7538;53.626;9.906;2023-02-01T09:47:12;18.47;;;4.87;;
14892;SDS011;7538;53.626;9.906;2023-02-01T09:49:45;14.47;;;4.30;;
14892;SDS011;7538;53.626;9.906;2023-02-01T09:52:17;17.13;;;4.50;;
14892;SDS011;7538;53.626;9.906;2023-02-01T09:54:52;23.77;;;4.43;;
14892;SDS011;7538;53.626;9.906;2023-02-01T09:57:26;18.87;;;4.73;;
14892;SDS011;7538;53.626;9.906;2023-02-01T10:00:00;13.90;;;3.92;;
14892;SDS011;7538;53.626;9.906;2023-02-01T10:02:32;11.40;;;3.72;;
14892;SDS011;7538;53.626;9.906;2023-02-01T10:05:01;16.50;;;4.70;;
14892;SDS011;7538;53.626;9.906;2023-02-01T10:07:30;18.52;;;4.18;;
14892;SDS011;7538;53.626;9.906;2023-02-01T10:10:08;16.75;;;4.95;;
14892;SDS011;7538;53.626;9.906;2023-02-01T10:15:35;16.17;;;4.32;;
14892;SDS011;7538;53.626;9.906;2023-02-01T10:18:25;14.80;;;4.63;;
14892;SDS011;7538;53.626;9.906;2023-02-01T10:21:10;13.50;;;4.18;;
14892;SDS011;7538;53.626;9.906;2023-02-01T10:23:51;16.40;;;3.90;;
14892;SDS011;7538;53.626;9.906;2023-02-01T10:26:35;18.53;;;4.27;;
14892;SDS011;7538;53.626;9.906;2023-02-01T10:29:04;16.65;;;4.32;;
14892;SDS011;7538;53.626;9.906;2023-02-01T10:31:40;20.48;;;5.22;;
14892;SDS011;7538;53.626;9.906;2023-02-01T10:34:13;17.57;;;4.27;;
14892;SDS011;7538;53.626;9.906;2023-02-01T10:36:48;14.13;;;4.27;;
14892;SDS011;7538;53.626;9.906;2023-02-01T10:39:19;18.23;;;4.30;;
14892;SDS011;7538;53.626;9.906;2023-02-01T10:41:47;18.63;;;4.77;;
14892;SDS011;7538;53.626;9.906;2023-02-01T10:44:15;20.93;;;4.40;;
14892;SDS011;7538;53.626;9.906;2023-02-01T10:46:43;17.90;;;4.20;;
14892;SDS011;7538;53.626;9.906;2023-02-01T10:49:13;14.40;;;3.90;;
14892;SDS011;7538;53.626;9.906;2023-02-01T10:51:45;17.17;;;5.20;;
14892;SDS011;7538;53.626;9.906;2023-02-01T10:54:17;12.80;;;4.40;;
14892;SDS011;7538;53.626;9.906;2023-02-01T10:56:46;14.60;;;3.57;;
14892;SDS011;7538;53.626;9.906;2023-02-01T10:59:17;16.87;;;4.23;;
14892;SDS011;7538;53.626;9.906;2023-02-01T11:01:46;10.43;;;2.87;;
14892;SDS011;7538;53.626;9.906;2023-02-01T11:04:15;9.73;;;2.50;;
14892;SDS011;7538;53.626;9.906;2023-02-01T11:06:45;7.70;;;2.53;;
14892;SDS011;7538;53.626;9.906;2023-02-01T11:09:16;13.63;;;2.80;;
14892;SDS011;7538;53.626;9.906;2023-02-01T11:11:53;12.87;;;3.03;;
14892;SDS011;7538;53.626;9.906;2023-02-01T11:14:26;19.13;;;4.10;;
14892;SDS011;7538;53.626;9.906;2023-02-01T11:17:00;14.63;;;3.33;;
14892;SDS011;7538;53.626;9.906;2023-02-01T11:19:45;10.90;;;3.23;;
14892;SDS011;7538;53.626;9.906;2023-02-01T11:22:12;16.73;;;4.00;;
14892;SDS011;7538;53.626;9.906;2023-02-01T11:24:40;12.87;;;3.40;;
14892;SDS011;7538;53.626;9.906;2023-02-01T11:27:13;14.83;;;3.60;;
14892;SDS011;7538;53.626;9.906;2023-02-01T11:29:43;15.43;;;4.17;;
14892;SDS011;7538;53.626;9.906;2023-02-01T11:32:12;11.90;;;3.10;;
14892;SDS011;7538;53.626;9.906;2023-02-01T11:34:45;14.73;;;3.83;;
14892;SDS011;7538;53.626;9.906;2023-02-01T11:37:16;16.47;;;4.13;;
14892;SDS011;7538;53.626;9.906;2023-02-01T11:39:53;14.00;;;4.07;;
14892;SDS011;7538;53.626;9.906;2023-02-01T11:42:21;19.97;;;3.97;;
14892;SDS011;7538;53.626;9.906;2023-02-01T11:44:48;19.33;;;4.60;;
14892;SDS011;7538;53.626;9.906;2023-02-01T11:47:19;12.37;;;4.03;;
14892;SDS011;7538;53.626;9.906;2023-02-01T11:49:49;20.83;;;4.77;;
14892;SDS011;7538;53.626;9.906;2023-02-01T11:52:18;15.17;;;4.20;;
14892;SDS011;7538;53.626;9.906;2023-02-01T11:55:18;16.10;;;3.37;;
14892;SDS011;7538;53.626;9.906;2023-02-01T11:58:15;8.03;;;2.80;;
14892;SDS011;7538;53.626;9.906;2023-02-01T12:01:04;9.40;;;2.53;;
14892;SDS011;7538;53.626;9.906;2023-02-01T12:03:53;10.13;;;2.33;;
14892;SDS011;7538;53.626;9.906;2023-02-01T12:06:44;11.73;;;2.90;;
14892;SDS011;7538;53.626;9.906;2023-02-01T12:09:20;12.47;;;2.63;;
14892;SDS011;7538;53.626;9.906;2023-02-01T12:12:01;9.40;;;2.40;;
14892;SDS011;7538;53.626;9.906;2023-02-01T12:14:40;9.40;;;2.87;;
14892;SDS011;7538;53.626;9.906;2023-02-01T12:17:32;11.03;;;3.17;;
14892;SDS011;7538;53.626;9.906;2023-02-01T12:23:25;10.50;;;2.70;;
14892;SDS011;7538;53.626;9.906;2023-02-01T12:26:08;8.53;;;2.97;;
14892;SDS011;7538;53.626;9.906;2023-02-01T12:29:09;8.33;;;2.67;;
14892;SDS011;7538;53.626;9.906;2023-02-01T12:31:52;9.53;;;2.00;;
14892;SDS011;7538;53.626;9.906;2023-02-01T12:34:53;4.90;;;1.40;;
14892;SDS011;7538;53.626;9.906;2023-02-01T12:37:50;5.47;;;1.40;;
14892;SDS011;7538;53.626;9.906;2023-02-01T12:40:28;4.03;;;1.40;;
14892;SDS011;7538;53.626;9.906;2023-02-01T12:43:07;4.53;;;1.33;;
14892;SDS011;7538;53.626;9.906;2023-02-01T12:45:40;3.10;;;0.90;;
14892;SDS011;7538;53.626;9.906;2023-02-01T12:48:17;3.40;;;1.50;;
14892;SDS011;7538;53.626;9.906;2023-02-01T12:50:52;5.00;;;1.10;;
14892;SDS011;7538;53.626;9.906;2023-02-01T12:53:23;2.47;;;1.00;;
14892;SDS011;7538;53.626;9.906;2023-02-01T12:55:55;5.00;;;1.83;;
14892;SDS011;7538;53.626;9.906;2023-02-01T12:58:26;2.90;;;1.10;;
14892;SDS011;7538;53.626;9.906;2023-02-01T13:00:59;2.90;;;1.13;;
14892;SDS011;7538;53.626;9.906;2023-02-01T13:03:29;2.63;;;1.10;;
14892;SDS011;7538;53.626;9.906;2023-02-01T13:06:05;1.23;;;0.90;;
14892;SDS011;7538;53.626;9.906;2023-02-01T13:08:38;1.90;;;0.80;;
14892;SDS011;7538;53.626;9.906;2023-02-01T13:11:12;2.07;;;1.07;;
14892;SDS011;7538;53.626;9.906;2023-02-01T13:13:46;3.27;;;1.10;;
14892;SDS011;7538;53.626;9.906;2023-02-01T13:16:23;1.27;;;1.00;;
14892;SDS011;7538;53.626;9.906;2023-02-01T13:18:55;1.53;;;0.80;;
14892;SDS011;7538;53.626;9.906;2023-02-01T13:21:29;4.37;;;1.00;;
14892;SDS011;7538;53.626;9.906;2023-02-01T13:23:59;2.27;;;0.90;;
14892;SDS011;7538;53.626;9.906;2023-02-01T13:26:27;2.07;;;1.10;;
14892;SDS011;7538;53.626;9.906;2023-02-01T13:28:56;2.27;;;0.73;;
14892;SDS011;7538;53.626;9.906;2023-02-01T13:31:36;2.93;;;1.13;;
14892;SDS011;7538;53.626;9.906;2023-02-01T13:37:27;2.43;;;1.00;;
14892;SDS011;7538;53.626;9.906;2023-02-01T13:40:18;3.57;;;1.13;;
14892;SDS011;7538;53.626;9.906;2023-02-01T13:43:00;1.43;;;0.90;;
14892;SDS011;7538;53.626;9.906;2023-02-01T13:45:32;3.53;;;1.17;;
14892;SDS011;7538;53.626;9.906;2023-02-01T13:48:02;1.83;;;1.10;;
14892;SDS011;7538;53.626;9.906;2023-02-01T13:50:32;4.67;;;1.13;;
14892;SDS011;7538;53.626;9.906;2023-02-01T13:53:03;5.07;;;1.30;;
14892;SDS011;7538;53.626;9.906;2023-02-01T13:55:39;6.00;;;1.30;;
14892;SDS011;7538;53.626;9.906;2023-02-01T13:58:17;8.33;;;1.30;;
14892;SDS011;7538;53.626;9.906;2023-02-01T14:00:46;4.27;;;1.40;;
14892;SDS011;7538;53.626;9.906;2023-02-01T14:03:14;5.00;;;1.20;;
14892;SDS011;7538;53.626;9.906;2023-02-01T14:06:02;3.50;;;1.30;;
14892;SDS011;7538;53.626;9.906;2023-02-01T14:08:42;4.83;;;1.20;;
14892;SDS011;7538;53.626;9.906;2023-02-01T14:11:31;6.10;;;2.20;;
14892;SDS011;7538;53.626;9.906;2023-02-01T14:23:17;4.67;;;1.50;;
14892;SDS011;7538;53.626;9.906;2023-02-01T14:25:59;8.30;;;1.77;;
14892;SDS011;7538;53.626;9.906;2023-02-01T14:28:37;13.50;;;2.43;;
14892;SDS011;7538;53.626;9.906;2023-02-01T14:31:14;6.50;;;1.83;;
14892;SDS011;7538;53.626;9.906;2023-02-01T14:33:59;9.10;;;1.63;;
14892;SDS011;7538;53.626;9.906;2023-02-01T14:36:38;9.20;;;1.97;;
14892;SDS011;7538;53.626;9.906;2023-02-01T14:39:18;9.47;;;1.90;;
14892;SDS011;7538;53.626;9.906;2023-02-01T14:41:57;7.67;;;1.90;;
14892;SDS011;7538;53.626;9.906;2023-02-01T14:44:34;7.40;;;1.87;;
14892;SDS011;7538;53.626;9.906;2023-02-01T14:47:06;10.03;;;1.87;;
14892;SDS011;7538;53.626;9.906;2023-02-01T14:53:01;5.47;;;1.67;;
14892;SDS011;7538;53.626;9.906;2023-02-01T14:55:37;7.13;;;1.70;;
14892;SDS011;7538;53.626;9.906;2023-02-01T14:58:10;7.10;;;2.23;;
14892;SDS011;7538;53.626;9.906;2023-02-01T15:00:46;7.83;;;2.37;;
14892;SDS011;7538;53.626;9.906;2023-02-01T15:03:29;9.30;;;2.33;;
14892;SDS011;7538;53.626;9.906;2023-02-01T15:06:20;10.97;;;2.47;;
14892;SDS011;7538;53.626;9.906;2023-02-01T15:08:52;12.43;;;2.87;;
14892;SDS011;7538;53.626;9.906;2023-02-01T15:11:21;12.47;;;2.90;;
14892;SDS011;7538;53.626;9.906;2023-02-01T15:13:48;10.10;;;2.70;;
14892;SDS011;7538;53.626;9.906;2023-02-01T15:16:18;13.40;;;2.67;;
14892;SDS011;7538;53.626;9.906;2023-02-01T15:18:47;11.10;;;2.33;;
14892;SDS011;7538;53.626;9.906;2023-02-01T15:21:15;8.47;;;2.43;;
14892;SDS011;7538;53.626;9.906;2023-02-01T15:23:45;12.33;;;2.70;;
14892;SDS011;7538;53.626;9.906;2023-02-01T15:26:24;10.63;;;3.03;;
14892;SDS011;7538;53.626;9.906;2023-02-01T15:28:51;13.77;;;2.37;;
14892;SDS011;7538;53.626;9.906;2023-02-01T15:31:30;8.90;;;2.23;;
14892;SDS011;7538;53.626;9.906;2023-02-01T15:33:59;9.00;;;2.50;;
14892;SDS011;7538;53.626;9.906;2023-02-01T15:36:26;9.17;;;2.90;;
14892;SDS011;7538;53.626;9.906;2023-02-01T15:41:44;8.40;;;2.27;;
14892;SDS011;7538;53.626;9.906;2023-02-01T15:44:16;7.83;;;2.20;;
14892;SDS011;7538;53.626;9.906;2023-02-01T15:46:46;11.87;;;3.00;;
14892;SDS011;7538;53.626;9.906;2023-02-01T15:49:17;11.53;;;2.53;;
14892;SDS011;7538;53.626;9.906;2023-02-01T15:51:48;13.47;;;3.13;;
14892;SDS011;7538;53.626;9.906;2023-02-01T15:54:17;16.77;;;3.80;;